Aeroporto :
LOGIN :

Iscrizione | Disclaimer

   EN    FR    IT 

 










Sommario :    VFR   VFR Marginale   IFR   IFR Intensivo   IFR Molto Intensivo
Visibilità : 
Base nubi : 
>= 8 km
>= 3000ft
5 / 8 km
1000 / 3000 ft
1500m / 5 km
500 / 1000 ft
800 / 1500m
200 / 500 ft
< 800m
< 200 ft
Simboli :   Temporali  Nebbia  Neve Forte  Precipitazioni Forti  Vento > 20 kt
SIGMETs :   Varie  Temporali  Ghiacco  Turbolenza  Onda orograficha  Ceneri Vulcaniche







- Altitudine del aeroporto : 896 ft


LOAN - Wiener Neustadt East

ULTIMO METAR :
  • 211000Z 30013G26KT 25KM SCT060SC FEW060CB

METARs OBSOLETI :
  • 210900Z VRB02KT 25KM -SHRA SCT060SC
  • 210800Z 10006KT 25KM SCT080AC

TAF TAF LOAN
Valido dal 21 a 09 ore il 21 a 18 ore UTC


210800Z 2109/2118 10005KT 9999 SCT100
BECMG 2109/2111 31012KT FEW050CB BKN100
PROB40
TEMPO 2110/2116 33020G30KT 4500 TSRA FEW050CB BKN055
Nessun NOTAM noto per questo aeroporto.



MetMap, La meteo Aeronautica in un colpo d'occhio ! - Copyright ORBIFLY Dicembre 2007 - Disclaimer

ORBIFLY MET'MAP TEAM :

Programmazione e sviluppo : Alexandra Zaïnal
Concezione e sviluppo : Baudouin d'Aumeries
Co-Programmazione e sviluppo : Marc-Olivier Méhu
Supporto tecnico e logistico : Manuel Goepfert
Aiuto per la traduzione : Arnaldo La Scala

Contatto : metmap@orbifly.com




FONTI E CREDITI :

   NOAA